createdAt,value
2022-10-28T00:00:38.069Z,101606.47
2022-10-28T00:10:39.311Z,101613.75
2022-10-28T00:20:40.614Z,101606.19
2022-10-28T00:30:42.997Z,101598.34
2022-10-28T00:40:44.222Z,101596.34
2022-10-28T00:50:45.452Z,101587.28
2022-10-28T01:00:46.709Z,101573.16
2022-10-28T01:10:47.958Z,101553.78
2022-10-28T01:20:49.167Z,101557.50
2022-10-28T01:30:50.382Z,101550.72
2022-10-28T01:40:51.600Z,101535.34
2022-10-28T01:50:52.828Z,101540.06
2022-10-28T02:00:54.095Z,101538.81
2022-10-28T02:10:55.389Z,101537.56
2022-10-28T02:20:56.640Z,101537.56
2022-10-28T02:30:57.859Z,101540.34
2022-10-28T02:40:59.073Z,101524.69
2022-10-28T02:51:00.323Z,101531.22
2022-10-28T03:01:01.621Z,101520.88
2022-10-28T03:11:02.891Z,101522.63
2022-10-28T03:21:04.285Z,101510.56
2022-10-28T03:31:05.529Z,101514.66
2022-10-28T03:41:06.778Z,101513.63
2022-10-28T03:51:08.016Z,101495.22
2022-10-28T04:01:09.305Z,101509.81
2022-10-28T04:11:10.700Z,101507.66
2022-10-28T04:21:11.927Z,101521.09
2022-10-28T04:31:13.174Z,101513.06
2022-10-28T04:41:14.400Z,101518.41
2022-10-28T04:51:15.651Z,101509.59
2022-10-28T05:01:17.011Z,101500.81
2022-10-28T05:11:18.376Z,101507.09
2022-10-28T05:21:19.666Z,101506.06
2022-10-28T05:31:20.874Z,101492.22
2022-10-28T05:41:23.334Z,101498.53
2022-10-28T05:51:24.803Z,101496.00
2022-10-28T06:01:26.083Z,101489.53
2022-10-28T06:11:25.808Z,101498.78
2022-10-28T06:21:27.055Z,101505.78
2022-10-28T06:31:28.318Z,101508.75
2022-10-28T06:41:29.610Z,101502.41
2022-10-28T06:51:32.388Z,101502.97
2022-10-28T07:01:33.687Z,101509.72
2022-10-28T07:11:35.046Z,101509.03
2022-10-28T07:21:36.333Z,101511.31
2022-10-28T07:31:37.561Z,101522.69
2022-10-28T07:41:38.793Z,101519.72
2022-10-28T07:51:40.037Z,101508.97
2022-10-28T08:01:41.344Z,101505.53
2022-10-28T08:11:42.732Z,101515.63
2022-10-28T08:21:43.954Z,101546.19
2022-10-28T08:31:45.197Z,101538.34
2022-10-28T08:41:46.431Z,101543.41
2022-10-28T08:51:47.671Z,101522.00
2022-10-28T09:01:49.032Z,101537.91
2022-10-28T09:11:50.317Z,101535.63
2022-10-28T09:21:51.578Z,101550.34
2022-10-28T09:31:52.882Z,101544.31
2022-10-28T09:41:54.127Z,101553.84
2022-10-28T09:51:55.413Z,101560.44
2022-10-28T10:01:56.798Z,101561.41
2022-10-28T10:22:21.459Z,101558.16
2022-10-28T10:32:22.684Z,101551.16
2022-10-28T10:42:23.911Z,101532.16
2022-10-28T10:52:32.072Z,101532.25
2022-10-28T11:02:40.173Z,101550.88
2022-10-28T11:12:49.521Z,101535.53
2022-10-28T11:22:57.368Z,101516.69
2022-10-28T11:33:28.197Z,101520.94
2022-10-28T11:43:26.330Z,101532.84
2022-10-28T11:53:27.596Z,101529.38
2022-10-28T12:03:30.092Z,101542.94
2022-10-28T12:13:38.073Z,101550.97
2022-10-28T12:23:46.093Z,101539.69
2022-10-28T12:33:56.221Z,101554.31
2022-10-28T12:44:04.067Z,101557.38
2022-10-28T12:54:12.107Z,101559.09
2022-10-28T13:04:22.601Z,101577.50
2022-10-28T13:14:27.084Z,101581.75
2022-10-28T13:24:36.053Z,101601.44
2022-10-28T13:34:46.561Z,101591.38
2022-10-28T13:44:54.083Z,101616.31
2022-10-28T13:55:02.121Z,101620.34
2022-10-28T14:05:08.169Z,101634.97
2022-10-28T14:15:20.345Z,101644.53
2022-10-28T14:25:25.087Z,101634.97
2022-10-28T14:35:33.638Z,101629.16
2022-10-28T14:45:45.971Z,101652.84
2022-10-28T14:55:50.927Z,101661.84
2022-10-28T15:05:59.104Z,101672.19
2022-10-28T15:16:07.102Z,101669.69
2022-10-28T15:26:15.669Z,101681.00
2022-10-28T15:57:14.514Z,101688.56
2022-10-28T16:07:22.105Z,101706.44
2022-10-28T16:17:23.357Z,101728.88
2022-10-28T16:37:55.434Z,101752.31
2022-10-28T16:58:26.100Z,101749.72
2022-10-28T17:08:49.386Z,101772.47
2022-10-28T17:18:49.447Z,101773.72
2022-10-28T17:28:50.678Z,101786.53
2022-10-28T17:38:51.912Z,101799.91
2022-10-28T17:48:53.167Z,101827.34
2022-10-28T17:58:54.386Z,101832.34
2022-10-28T18:08:55.624Z,101835.38
2022-10-28T18:18:56.888Z,101844.94
2022-10-28T18:28:58.094Z,101855.72
2022-10-28T18:38:59.341Z,101869.31
2022-10-28T18:59:06.713Z,101870.84
2022-10-28T19:09:07.956Z,101868.56
2022-10-28T19:19:09.230Z,101891.94
2022-10-28T19:29:10.514Z,101890.44
2022-10-28T19:39:11.767Z,101907.25
2022-10-28T19:49:13.024Z,101886.34
2022-10-28T19:59:14.237Z,101922.66
2022-10-28T20:09:15.441Z,101935.75
2022-10-28T20:19:16.676Z,101940.22
2022-10-28T20:29:17.906Z,101960.22
2022-10-28T20:39:19.278Z,101977.50
2022-10-28T20:49:20.553Z,101993.34
2022-10-28T20:59:21.864Z,102004.25
2022-10-28T21:09:23.219Z,101996.13
2022-10-28T21:19:24.440Z,102003.69
2022-10-28T21:29:25.688Z,101996.31
2022-10-28T21:39:26.890Z,101988.75
2022-10-28T21:49:28.119Z,101985.03
2022-10-28T21:59:29.373Z,101999.38
2022-10-28T22:09:34.882Z,101995.38
2022-10-28T22:19:38.714Z,101987.72
2022-10-28T22:29:39.961Z,102006.16
2022-10-28T22:39:41.198Z,102010.16
2022-10-28T22:49:42.424Z,102019.44
2022-10-28T22:59:43.649Z,102032.25
2022-10-28T23:09:44.877Z,101991.25
2022-10-28T23:19:46.164Z,101996.69
2022-10-28T23:29:47.377Z,102010.38
2022-10-28T23:39:48.609Z,102027.47
2022-10-28T23:49:49.840Z,102011.00
2022-10-28T23:59:51.102Z,102005.44
